createdAt,value
2022-10-10T00:00:43.918Z,84.97
2022-10-10T00:02:00.647Z,84.97
2022-10-10T00:03:17.036Z,84.87
2022-10-10T00:04:33.417Z,84.87
2022-10-10T00:05:49.801Z,85.07
2022-10-10T00:07:07.664Z,85.11
2022-10-10T00:08:24.315Z,85.11
2022-10-10T00:09:40.701Z,85.42
2022-10-10T00:10:57.055Z,85.73
2022-10-10T00:12:13.481Z,85.73
2022-10-10T00:13:29.855Z,85.94
2022-10-10T00:14:46.508Z,86.04
2022-10-10T00:16:04.316Z,86.24
2022-10-10T00:17:20.746Z,86.24
2022-10-10T00:18:37.117Z,86.24
2022-10-10T00:19:53.587Z,86.04
2022-10-10T00:21:10.228Z,86.04
2022-10-10T00:22:26.608Z,86.04
2022-10-10T00:23:44.430Z,86.04
2022-10-10T00:25:00.846Z,85.94
2022-10-10T00:26:19.272Z,86.04
2022-10-10T00:27:37.448Z,86.15
2022-10-10T00:28:53.817Z,86.24
2022-10-10T00:30:10.211Z,86.24
2022-10-10T00:31:26.572Z,86.04
2022-10-10T00:32:44.520Z,85.94
2022-10-10T00:34:01.153Z,85.94
2022-10-10T00:35:17.548Z,85.73
2022-10-10T00:36:35.410Z,85.42
2022-10-10T00:37:52.662Z,85.42
2022-10-10T00:39:10.479Z,85.57
2022-10-10T00:40:27.141Z,85.57
2022-10-10T00:41:43.558Z,85.36
2022-10-10T00:43:01.418Z,85.57
2022-10-10T00:44:17.820Z,85.67
2022-10-10T00:45:35.662Z,85.87
2022-10-10T00:46:53.261Z,85.97
2022-10-10T00:48:09.653Z,86.08
2022-10-10T00:49:27.522Z,86.29
2022-10-10T00:50:43.922Z,86.43
2022-10-10T00:52:01.734Z,86.74
2022-10-10T00:53:18.442Z,86.84
2022-10-10T00:54:34.865Z,86.74
2022-10-10T00:55:53.220Z,86.74
2022-10-10T00:57:09.582Z,86.74
2022-10-10T00:58:26.002Z,86.84
2022-10-10T00:59:42.655Z,86.94
2022-10-10T01:00:59.092Z,87.05
2022-10-10T01:02:15.534Z,87.15
2022-10-10T01:03:31.926Z,87.26
2022-10-10T01:04:48.298Z,87.26
2022-10-10T01:06:04.950Z,87.26
2022-10-10T01:07:21.344Z,87.35
2022-10-10T01:08:40.079Z,87.35
2022-10-10T01:09:56.485Z,87.46
2022-10-10T01:11:13.207Z,87.50
2022-10-10T01:12:29.859Z,87.60
2022-10-10T01:13:46.245Z,87.29
2022-10-10T01:15:02.617Z,87.19
2022-10-10T01:16:19.094Z,87.40
2022-10-10T01:17:36.416Z,87.50
2022-10-10T01:18:53.068Z,87.50
2022-10-10T01:20:09.487Z,87.50
2022-10-10T01:21:25.902Z,87.71
2022-10-10T01:22:42.258Z,87.81
2022-10-10T01:24:00.101Z,88.02
2022-10-10T01:25:16.728Z,88.22
2022-10-10T01:26:34.673Z,88.32
2022-10-10T01:27:52.476Z,88.43
2022-10-10T01:29:10.309Z,88.53
2022-10-10T01:30:26.703Z,88.64
2022-10-10T01:31:43.342Z,88.64
2022-10-10T01:32:59.699Z,88.64
2022-10-10T01:34:16.087Z,88.64
2022-10-10T01:35:33.929Z,88.64
2022-10-10T01:36:50.320Z,88.64
2022-10-10T01:38:06.971Z,88.64
2022-10-10T01:39:23.450Z,88.53
2022-10-10T01:40:39.834Z,88.43
2022-10-10T01:41:57.670Z,88.43
2022-10-10T01:43:14.080Z,88.32
2022-10-10T01:44:32.232Z,88.22
2022-10-10T01:45:48.601Z,88.12
2022-10-10T01:47:05.081Z,88.22
2022-10-10T01:48:22.895Z,88.43
2022-10-10T01:49:40.762Z,88.53
2022-10-10T01:50:57.391Z,88.64
2022-10-10T01:52:13.782Z,88.43
2022-10-10T01:53:30.151Z,88.43
2022-10-10T01:54:46.554Z,88.43
2022-10-10T01:56:02.934Z,88.43
2022-10-10T01:57:19.593Z,88.43
2022-10-10T01:58:37.425Z,88.43
2022-10-10T01:59:53.835Z,88.49
2022-10-10T02:01:10.246Z,88.49
2022-10-10T02:02:26.615Z,88.53
2022-10-10T02:03:43.236Z,88.53
2022-10-10T02:04:59.676Z,88.59
2022-10-10T02:06:16.034Z,88.59
2022-10-10T02:07:32.436Z,88.49
2022-10-10T02:08:48.804Z,88.59
2022-10-10T02:10:05.499Z,88.70
2022-10-10T02:11:23.319Z,88.90
2022-10-10T02:12:39.708Z,89.01
2022-10-10T02:13:56.113Z,89.11
2022-10-10T02:15:13.945Z,89.22
2022-10-10T02:16:31.538Z,89.32
2022-10-10T02:17:47.928Z,89.42
2022-10-10T02:19:05.777Z,89.42
2022-10-10T02:20:23.614Z,89.52
2022-10-10T02:21:39.986Z,89.62
2022-10-10T02:22:56.644Z,89.62
2022-10-10T02:24:13.041Z,89.73
2022-10-10T02:25:29.436Z,89.83
2022-10-10T02:26:45.817Z,89.94
2022-10-10T02:28:03.648Z,89.94
2022-10-10T02:29:20.347Z,90.00
2022-10-10T02:30:37.668Z,90.10
2022-10-10T02:31:54.029Z,90.00
2022-10-10T02:33:10.420Z,90.00
2022-10-10T02:34:28.271Z,90.00
2022-10-10T02:35:44.921Z,90.00
2022-10-10T02:37:01.381Z,90.20
2022-10-10T02:38:17.759Z,90.16
2022-10-10T02:39:35.601Z,89.95
2022-10-10T02:40:53.810Z,89.85
2022-10-10T02:42:10.451Z,89.85
2022-10-10T02:43:28.280Z,89.75
2022-10-10T02:44:44.679Z,89.65
2022-10-10T02:46:01.097Z,89.65
2022-10-10T02:47:17.444Z,89.85
2022-10-10T02:48:34.119Z,89.95
2022-10-10T02:49:50.513Z,89.85
2022-10-10T02:51:08.353Z,89.85
2022-10-10T02:52:24.712Z,89.75
2022-10-10T02:53:41.124Z,89.85
2022-10-10T02:54:57.796Z,89.75
2022-10-10T02:56:14.307Z,89.65
2022-10-10T02:57:31.633Z,89.54
2022-10-10T02:58:48.033Z,89.54
2022-10-10T03:00:05.875Z,89.44
2022-10-10T03:01:22.579Z,89.44
2022-10-10T03:02:38.976Z,89.34
2022-10-10T03:03:55.375Z,89.34
2022-10-10T03:05:11.755Z,89.34
2022-10-10T03:06:28.144Z,89.85
2022-10-10T03:07:44.794Z,89.65
2022-10-10T03:09:01.215Z,89.44
2022-10-10T03:10:17.575Z,89.44
2022-10-10T03:11:33.957Z,89.44
2022-10-10T03:12:50.611Z,89.44
2022-10-10T03:14:07.108Z,89.44
2022-10-10T03:15:23.497Z,89.54
2022-10-10T03:16:39.867Z,89.54
2022-10-10T03:17:56.236Z,89.54
2022-10-10T03:19:12.649Z,89.65
2022-10-10T03:20:29.288Z,89.71
2022-10-10T03:21:45.676Z,89.71
2022-10-10T03:23:03.501Z,89.71
2022-10-10T03:24:21.377Z,89.40
2022-10-10T03:25:37.778Z,89.71
2022-10-10T03:26:54.427Z,89.50
2022-10-10T03:28:10.839Z,89.19
2022-10-10T03:29:28.679Z,89.19
2022-10-10T03:30:45.142Z,89.19
2022-10-10T03:32:01.528Z,89.61
2022-10-10T03:33:18.200Z,89.61
2022-10-10T03:34:34.587Z,89.50
2022-10-10T03:35:52.472Z,89.29
2022-10-10T03:37:10.319Z,89.19
2022-10-10T03:38:26.692Z,89.09
2022-10-10T03:39:43.362Z,88.89
2022-10-10T03:40:59.760Z,88.68
2022-10-10T03:42:17.590Z,88.57
2022-10-10T03:43:35.409Z,88.57
2022-10-10T03:44:53.271Z,88.57
2022-10-10T03:46:15.775Z,88.47
2022-10-10T03:47:34.084Z,88.37
2022-10-10T03:48:51.942Z,88.47
2022-10-10T03:50:08.322Z,88.57
2022-10-10T03:51:24.692Z,88.68
2022-10-10T03:52:41.354Z,88.78
2022-10-10T03:53:57.756Z,88.89
2022-10-10T03:55:15.584Z,89.09
2022-10-10T03:56:31.955Z,89.09
2022-10-10T03:57:48.347Z,89.19
2022-10-10T03:59:05.016Z,89.19
2022-10-10T04:00:22.859Z,89.56
2022-10-10T04:01:39.294Z,89.46
2022-10-10T04:02:55.706Z,89.46
2022-10-10T04:04:12.074Z,89.56
2022-10-10T04:05:28.780Z,89.67
2022-10-10T04:06:46.611Z,89.56
2022-10-10T04:08:04.476Z,89.46
2022-10-10T04:09:20.847Z,89.46
2022-10-10T04:10:37.249Z,89.46
2022-10-10T04:11:55.386Z,89.31
2022-10-10T04:13:13.247Z,89.25
2022-10-10T04:14:29.627Z,89.01
2022-10-10T04:15:47.468Z,90.24
2022-10-10T04:17:05.326Z,90.14
2022-10-10T04:18:21.708Z,89.62
2022-10-10T04:19:38.090Z,89.52
2022-10-10T04:20:55.918Z,90.30
2022-10-10T04:22:13.881Z,90.20
2022-10-10T04:23:31.998Z,89.85
2022-10-10T04:24:49.831Z,89.13
2022-10-10T04:26:07.666Z,88.92
2022-10-10T04:27:25.590Z,89.13
2022-10-10T04:28:43.508Z,88.89
2022-10-10T04:30:01.620Z,88.89
2022-10-10T04:31:19.510Z,88.43
2022-10-10T04:32:37.370Z,87.92
2022-10-10T04:33:55.232Z,87.67
2022-10-10T04:35:12.592Z,87.46
2022-10-10T04:36:30.702Z,87.16
2022-10-10T04:37:48.521Z,86.81
2022-10-10T04:39:06.403Z,86.40
2022-10-10T04:40:26.811Z,86.30
2022-10-10T04:41:44.825Z,85.99
2022-10-10T04:43:01.492Z,85.54
2022-10-10T04:44:19.343Z,85.09
2022-10-10T04:45:37.864Z,84.47
2022-10-10T04:46:55.224Z,84.27
2022-10-10T04:48:13.096Z,84.06
2022-10-10T04:49:30.948Z,84.06
2022-10-10T04:50:48.814Z,83.96
2022-10-10T04:52:06.648Z,83.92
2022-10-10T04:53:24.505Z,83.72
2022-10-10T04:54:42.678Z,83.72
2022-10-10T04:56:00.530Z,83.51
2022-10-10T04:57:18.398Z,83.27
2022-10-10T04:58:36.265Z,82.96
2022-10-10T04:59:54.147Z,82.86
2022-10-10T05:01:12.343Z,82.76
2022-10-10T05:02:30.177Z,82.31
2022-10-10T05:03:48.527Z,81.90
2022-10-10T05:05:06.409Z,81.70
2022-10-10T05:06:24.279Z,81.70
2022-10-10T05:07:42.129Z,81.49
2022-10-10T05:09:00.046Z,81.38
2022-10-10T05:10:17.869Z,81.35
2022-10-10T05:11:35.711Z,81.24
2022-10-10T05:12:53.965Z,81.15
2022-10-10T05:14:12.805Z,81.15
2022-10-10T05:15:30.708Z,81.24
2022-10-10T05:16:48.800Z,81.15
2022-10-10T05:18:06.664Z,80.94
2022-10-10T05:19:23.103Z,80.83
2022-10-10T05:20:41.727Z,80.74
2022-10-10T05:21:59.593Z,80.60
2022-10-10T05:23:17.952Z,80.39
2022-10-10T05:24:35.272Z,80.19
2022-10-10T05:25:52.631Z,80.08
2022-10-10T05:27:10.800Z,80.08
2022-10-10T05:28:28.701Z,79.98
2022-10-10T05:29:46.109Z,79.98
2022-10-10T05:31:03.945Z,79.98
2022-10-10T05:32:21.834Z,79.98
2022-10-10T05:33:39.224Z,79.88
2022-10-10T05:34:56.562Z,79.68
2022-10-10T05:36:13.895Z,79.53
2022-10-10T05:37:31.934Z,79.43
2022-10-10T05:38:49.859Z,79.33
2022-10-10T05:40:07.707Z,79.23
2022-10-10T05:41:26.499Z,79.23
2022-10-10T05:42:44.398Z,79.33
2022-10-10T05:44:02.237Z,79.33
2022-10-10T05:45:18.741Z,79.23
2022-10-10T05:46:36.600Z,79.23
2022-10-10T05:47:54.499Z,79.13
2022-10-10T05:49:12.603Z,79.02
2022-10-10T05:50:30.472Z,79.02
2022-10-10T05:51:46.892Z,79.02
2022-10-10T05:53:04.879Z,79.02
2022-10-10T05:54:22.709Z,79.02
2022-10-10T05:55:40.591Z,79.02
2022-10-10T05:56:58.431Z,78.99
2022-10-10T05:58:15.830Z,78.88
2022-10-10T05:59:33.691Z,78.88
2022-10-10T06:00:52.358Z,78.88
2022-10-10T06:02:10.722Z,78.78
2022-10-10T06:03:28.612Z,78.78
2022-10-10T06:04:46.982Z,78.78
2022-10-10T06:06:07.024Z,78.58
2022-10-10T06:07:32.239Z,78.68
2022-10-10T06:08:49.143Z,78.58
2022-10-10T06:10:06.963Z,78.58
2022-10-10T06:11:24.827Z,78.58
2022-10-10T06:12:42.964Z,78.48
2022-10-10T06:14:00.854Z,78.34
2022-10-10T06:15:18.205Z,78.38
2022-10-10T06:16:36.104Z,78.23
2022-10-10T06:17:53.435Z,78.03
2022-10-10T06:19:14.821Z,77.93
2022-10-10T06:20:33.526Z,77.83
2022-10-10T06:21:50.417Z,77.72
2022-10-10T06:23:09.108Z,77.62
2022-10-10T06:24:27.691Z,77.69
2022-10-10T06:25:46.080Z,77.69
2022-10-10T06:27:04.476Z,77.59
2022-10-10T06:28:22.427Z,77.48
2022-10-10T06:29:40.251Z,77.38
2022-10-10T06:30:58.895Z,77.48
2022-10-10T06:32:17.305Z,77.48
2022-10-10T06:33:34.639Z,77.28
2022-10-10T06:34:52.018Z,77.38
2022-10-10T06:36:09.371Z,77.18
2022-10-10T06:37:26.769Z,76.84
2022-10-10T06:38:44.605Z,76.63
2022-10-10T06:40:03.844Z,76.32
2022-10-10T06:41:22.104Z,75.98
2022-10-10T06:42:40.745Z,75.98
2022-10-10T06:43:58.598Z,75.88
2022-10-10T06:45:16.501Z,75.57
2022-10-10T06:46:34.965Z,75.37
2022-10-10T06:47:52.843Z,75.27
2022-10-10T06:49:11.197Z,75.37
2022-10-10T06:50:29.044Z,75.03
2022-10-10T06:51:46.930Z,74.93
2022-10-10T06:53:04.814Z,74.93
2022-10-10T06:54:26.192Z,74.83
2022-10-10T06:55:47.566Z,74.62
2022-10-10T06:57:13.919Z,74.62
2022-10-10T06:58:34.693Z,74.49
2022-10-10T06:59:52.303Z,74.49
2022-10-10T07:01:12.569Z,74.49
2022-10-10T07:02:31.761Z,74.38
2022-10-10T07:03:49.735Z,74.49
2022-10-10T07:05:07.825Z,74.49
2022-10-10T07:06:25.255Z,74.28
2022-10-10T07:07:43.947Z,74.15
2022-10-10T07:09:00.422Z,74.04
2022-10-10T07:10:17.603Z,73.94
2022-10-10T07:11:35.989Z,73.64
2022-10-10T07:12:52.520Z,73.43
2022-10-10T07:14:10.190Z,73.13
2022-10-10T07:15:27.702Z,73.19
2022-10-10T07:16:45.840Z,73.10
2022-10-10T07:18:03.517Z,72.89
2022-10-10T07:19:22.421Z,72.78
2022-10-10T07:20:41.120Z,72.48
2022-10-10T07:23:51.983Z,72.25
2022-10-10T07:25:10.148Z,72.14
2022-10-10T07:26:27.075Z,72.14
2022-10-10T07:27:44.420Z,72.14
2022-10-10T07:29:01.795Z,71.94
2022-10-10T07:30:19.127Z,71.80
2022-10-10T07:31:39.449Z,71.80
2022-10-10T07:32:57.527Z,71.80
2022-10-10T07:34:15.493Z,71.60
2022-10-10T07:35:33.319Z,71.57
2022-10-10T07:36:50.759Z,71.06
2022-10-10T07:38:09.389Z,70.96
2022-10-10T07:39:26.842Z,70.86
2022-10-10T07:40:44.699Z,70.45
2022-10-10T07:42:02.582Z,70.35
2022-10-10T07:43:20.410Z,70.62
2022-10-10T07:44:37.783Z,70.11
2022-10-10T07:45:56.174Z,70.11
2022-10-10T07:47:13.474Z,70.01
2022-10-10T07:48:31.352Z,69.87
2022-10-10T07:49:48.761Z,69.67
2022-10-10T07:51:06.632Z,69.47
2022-10-10T07:52:24.482Z,69.13
2022-10-10T07:53:41.844Z,68.83
2022-10-10T07:54:59.743Z,68.62
2022-10-10T07:56:17.388Z,68.49
2022-10-10T07:57:35.242Z,68.19
2022-10-10T07:58:53.596Z,67.95
2022-10-10T08:00:11.472Z,67.65
2022-10-10T08:01:30.178Z,66.91
2022-10-10T08:02:48.089Z,66.97
2022-10-10T08:04:05.937Z,66.37
2022-10-10T08:05:24.317Z,65.32
2022-10-10T08:06:42.189Z,64.69
2022-10-10T08:08:00.049Z,64.69
2022-10-10T08:09:19.437Z,63.95
2022-10-10T08:10:36.781Z,63.64
2022-10-10T08:11:54.138Z,63.61
2022-10-10T08:13:12.538Z,63.01
2022-10-10T08:14:30.993Z,62.67
2022-10-10T08:15:48.839Z,62.16
2022-10-10T08:17:07.170Z,61.83
2022-10-10T08:18:25.842Z,61.53
2022-10-10T08:19:43.724Z,61.43
2022-10-10T08:21:01.079Z,61.51
2022-10-10T08:22:18.581Z,61.40
2022-10-10T08:23:36.417Z,60.66
2022-10-10T08:24:54.134Z,60.46
2022-10-10T08:26:11.994Z,59.83
2022-10-10T08:27:29.359Z,59.73
2022-10-10T08:28:49.180Z,59.30
2022-10-10T08:30:07.123Z,59.30
2022-10-10T08:31:25.017Z,58.87
2022-10-10T08:32:42.895Z,58.47
2022-10-10T08:34:01.275Z,58.03
2022-10-10T08:35:19.146Z,57.73
2022-10-10T08:36:37.209Z,57.81
2022-10-10T08:37:55.036Z,57.81
2022-10-10T08:39:12.420Z,57.07
2022-10-10T08:40:30.780Z,56.97
2022-10-10T08:41:48.948Z,56.97
2022-10-10T08:43:06.299Z,56.64
2022-10-10T08:44:24.728Z,56.57
2022-10-10T08:45:43.078Z,56.74
2022-10-10T08:47:03.064Z,56.95
2022-10-10T08:48:21.715Z,56.41
2022-10-10T08:49:40.095Z,55.81
2022-10-10T08:50:57.482Z,56.21
2022-10-10T08:52:17.191Z,55.99
2022-10-10T08:53:35.400Z,55.28
2022-10-10T08:54:58.292Z,55.58
2022-10-10T08:56:15.955Z,55.35
2022-10-10T08:57:33.407Z,55.23
2022-10-10T08:58:51.305Z,54.10
2022-10-10T09:00:16.317Z,53.57
2022-10-10T09:01:35.478Z,53.05
2022-10-10T09:02:57.240Z,52.44
2022-10-10T09:04:14.807Z,52.12
2022-10-10T09:05:33.388Z,51.29
2022-10-10T09:06:52.657Z,51.07
2022-10-10T09:08:12.962Z,50.34
2022-10-10T09:09:32.582Z,49.52
2022-10-10T09:10:52.859Z,49.62
2022-10-10T09:12:10.817Z,49.22
2022-10-10T09:13:32.686Z,48.90
2022-10-10T09:14:53.180Z,49.02
2022-10-10T09:16:12.391Z,49.52
2022-10-10T09:18:53.660Z,49.32
2022-10-10T09:20:17.612Z,49.32
2022-10-10T09:21:37.808Z,49.04
2022-10-10T09:23:02.032Z,49.64
2022-10-10T09:24:22.930Z,49.94
2022-10-10T09:25:53.913Z,49.84
2022-10-10T09:27:13.975Z,50.07
2022-10-10T09:28:37.733Z,50.26
2022-10-10T09:29:58.850Z,49.84
2022-10-10T09:31:16.626Z,50.34
2022-10-10T09:34:29.384Z,49.40
2022-10-10T09:37:47.285Z,48.55
2022-10-10T09:39:04.910Z,47.92
2022-10-10T09:40:23.919Z,46.92
2022-10-10T09:41:41.491Z,47.00
2022-10-10T09:43:10.867Z,46.70
2022-10-10T09:44:31.985Z,46.91
2022-10-10T09:47:41.456Z,46.70
2022-10-10T09:49:06.387Z,46.91
2022-10-10T09:50:30.078Z,47.10
2022-10-10T09:51:48.389Z,47.40
2022-10-10T09:53:06.314Z,47.18
2022-10-10T09:54:27.407Z,46.68
2022-10-10T09:55:51.273Z,46.46
2022-10-10T09:57:13.235Z,45.94
2022-10-10T09:58:30.814Z,45.04
2022-10-10T09:59:49.373Z,45.34
2022-10-10T10:01:09.122Z,45.22
2022-10-10T10:02:31.919Z,44.12
2022-10-10T10:05:46.409Z,44.01
2022-10-10T10:07:06.177Z,43.79
2022-10-10T10:08:24.141Z,43.27
2022-10-10T10:09:50.538Z,43.27
2022-10-10T10:11:12.404Z,42.77
2022-10-10T10:12:36.788Z,42.25
2022-10-10T10:13:53.395Z,41.53
2022-10-10T10:15:11.995Z,41.42
2022-10-10T10:18:20.828Z,40.05
2022-10-10T10:19:39.375Z,40.14
2022-10-10T10:20:58.477Z,40.33
2022-10-10T10:22:26.381Z,39.81
2022-10-10T10:23:47.330Z,39.90
2022-10-10T10:25:07.677Z,39.63
2022-10-10T10:26:31.276Z,39.86
2022-10-10T10:27:51.608Z,40.48
2022-10-10T10:29:15.653Z,40.66
2022-10-10T10:30:43.072Z,41.08
2022-10-10T10:32:00.412Z,40.46
2022-10-10T10:33:18.282Z,39.54
2022-10-10T10:34:36.169Z,39.35
2022-10-10T10:35:53.774Z,39.45
2022-10-10T10:37:14.863Z,39.45
2022-10-10T10:38:32.967Z,39.25
2022-10-10T10:39:51.732Z,38.85
2022-10-10T10:41:10.868Z,39.25
2022-10-10T10:42:29.217Z,39.17
2022-10-10T10:43:47.072Z,39.27
2022-10-10T10:45:04.515Z,39.57
2022-10-10T10:46:20.997Z,40.38
2022-10-10T10:47:38.312Z,40.48
2022-10-10T10:48:56.140Z,39.97
2022-10-10T10:50:14.444Z,40.16
2022-10-10T10:51:34.405Z,39.25
2022-10-10T10:52:52.161Z,39.27
2022-10-10T10:54:10.064Z,39.59
2022-10-10T10:55:29.113Z,39.90
2022-10-10T10:56:48.093Z,40.70
2022-10-10T10:58:48.828Z,40.38
2022-10-10T11:00:22.180Z,40.18
2022-10-10T11:01:33.698Z,40.30
2022-10-10T11:02:26.265Z,40.48
2022-10-10T11:05:20.537Z,40.38
2022-10-10T11:05:22.032Z,41.00
2022-10-10T11:06:24.564Z,41.12
2022-10-10T11:07:45.602Z,41.12
2022-10-10T11:09:04.084Z,40.40
2022-10-10T11:10:22.923Z,40.38
2022-10-10T11:11:41.512Z,40.38
2022-10-10T11:12:58.914Z,39.95
2022-10-10T11:14:17.775Z,39.03
2022-10-10T11:16:01.205Z,39.11
2022-10-10T11:16:57.602Z,39.51
2022-10-10T11:18:15.969Z,38.92
2022-10-10T11:19:35.302Z,38.64
2022-10-10T11:20:52.779Z,38.83
2022-10-10T11:22:11.224Z,39.05
2022-10-10T11:23:29.748Z,39.37
2022-10-10T11:24:47.674Z,39.47
2022-10-10T11:26:06.858Z,38.97
2022-10-10T11:27:23.472Z,39.59
2022-10-10T11:28:40.578Z,40.00
2022-10-10T11:30:00.710Z,40.40
2022-10-10T11:31:18.741Z,40.08
2022-10-10T11:34:26.706Z,40.70
2022-10-10T11:35:44.576Z,41.42
2022-10-10T11:37:01.177Z,41.12
2022-10-10T11:38:18.891Z,41.61
2022-10-10T11:39:36.465Z,41.82
2022-10-10T11:40:57.963Z,41.61
2022-10-10T11:42:15.744Z,41.52
2022-10-10T11:43:33.328Z,41.83
2022-10-10T11:44:51.424Z,42.85
2022-10-10T11:46:09.044Z,43.25
2022-10-10T11:47:27.996Z,43.05
2022-10-10T11:48:46.874Z,43.65
2022-10-10T11:50:08.298Z,43.67
2022-10-10T11:51:29.497Z,43.67
2022-10-10T11:52:47.205Z,43.49
2022-10-10T11:54:03.764Z,43.99
2022-10-10T11:55:21.648Z,44.31
2022-10-10T11:56:39.566Z,44.19
2022-10-10T11:58:02.692Z,43.97
2022-10-10T11:59:20.196Z,43.57
2022-10-10T12:00:37.678Z,43.55
2022-10-10T12:01:55.118Z,42.95
2022-10-10T12:03:12.747Z,42.85
2022-10-10T12:04:36.325Z,42.55
2022-10-10T12:05:54.320Z,42.77
2022-10-10T12:07:12.959Z,42.77
2022-10-10T12:25:57.705Z,43.51
2022-10-10T12:31:12.607Z,43.61
2022-10-10T12:53:19.273Z,45.31
2022-10-10T13:01:04.643Z,46.75
2022-10-10T13:04:29.928Z,47.37
2022-10-10T13:13:23.029Z,47.65
2022-10-10T13:20:17.019Z,47.55
2022-10-10T13:26:57.022Z,48.27
2022-10-10T13:32:53.653Z,49.29
2022-10-10T13:36:10.574Z,49.90
2022-10-10T13:43:38.599Z,49.69
2022-10-10T13:57:02.657Z,51.25
2022-10-10T13:59:55.964Z,51.97
2022-10-10T14:56:16.129Z,55.63
2022-10-10T17:01:22.117Z,75.78
2022-10-10T19:36:28.764Z,80.59
